sensor_id;sensor_type;location;lat;lon;timestamp;temperature;humidity
24384;DHT22;12504;52.870;8.798;2022-11-20T00:01:47;-0.80;99.90
24384;DHT22;12504;52.870;8.798;2022-11-20T00:04:13;-0.80;99.90
24384;DHT22;12504;52.870;8.798;2022-11-20T00:06:39;-0.80;99.90
24384;DHT22;12504;52.870;8.798;2022-11-20T00:09:04;-0.70;99.90
24384;DHT22;12504;52.870;8.798;2022-11-20T00:11:31;-0.60;99.90
24384;DHT22;12504;52.870;8.798;2022-11-20T00:13:58;-0.60;99.90
24384;DHT22;12504;52.870;8.798;2022-11-20T00:16:25;-0.60;99.90
24384;DHT22;12504;52.870;8.798;2022-11-20T00:18:51;-0.70;99.90
24384;DHT22;12504;52.870;8.798;2022-11-20T00:21:19;-0.70;99.90
24384;DHT22;12504;52.870;8.798;2022-11-20T00:23:45;-0.60;99.90
24384;DHT22;12504;52.870;8.798;2022-11-20T00:26:15;-0.50;99.90
24384;DHT22;12504;52.870;8.798;2022-11-20T00:28:42;-0.50;99.90
24384;DHT22;12504;52.870;8.798;2022-11-20T00:31:12;-0.50;99.90
24384;DHT22;12504;52.870;8.798;2022-11-20T00:33:38;-0.60;99.90
24384;DHT22;12504;52.870;8.798;2022-11-20T00:36:04;-0.60;99.90
24384;DHT22;12504;52.870;8.798;2022-11-20T00:38:31;-0.70;99.90
24384;DHT22;12504;52.870;8.798;2022-11-20T00:40:57;-0.70;99.90
24384;DHT22;12504;52.870;8.798;2022-11-20T00:43:23;-0.80;99.90
24384;DHT22;12504;52.870;8.798;2022-11-20T00:45:49;-0.70;99.90
24384;DHT22;12504;52.870;8.798;2022-11-20T00:48:15;-0.60;99.90
24384;DHT22;12504;52.870;8.798;2022-11-20T00:50:41;-0.70;99.90
24384;DHT22;12504;52.870;8.798;2022-11-20T00:53:06;-0.70;99.90
24384;DHT22;12504;52.870;8.798;2022-11-20T00:55:32;-0.80;99.90
24384;DHT22;12504;52.870;8.798;2022-11-20T00:57:58;-0.80;99.90
24384;DHT22;12504;52.870;8.798;2022-11-20T01:00:23;-0.70;99.90
24384;DHT22;12504;52.870;8.798;2022-11-20T01:02:49;-0.60;99.90
24384;DHT22;12504;52.870;8.798;2022-11-20T01:05:15;-0.60;99.90
24384;DHT22;12504;52.870;8.798;2022-11-20T01:07:40;-0.60;99.90
24384;DHT22;12504;52.870;8.798;2022-11-20T01:10:06;-0.50;99.90
24384;DHT22;12504;52.870;8.798;2022-11-20T01:12:34;-0.40;99.90
24384;DHT22;12504;52.870;8.798;2022-11-20T01:15:00;-0.30;99.90
24384;DHT22;12504;52.870;8.798;2022-11-20T01:17:26;-0.30;99.90
24384;DHT22;12504;52.870;8.798;2022-11-20T01:19:51;-0.30;99.90
24384;DHT22;12504;52.870;8.798;2022-11-20T01:22:17;-0.30;99.90
24384;DHT22;12504;52.870;8.798;2022-11-20T01:24:42;-0.30;99.90
24384;DHT22;12504;52.870;8.798;2022-11-20T01:27:08;-0.30;99.90
24384;DHT22;12504;52.870;8.798;2022-11-20T01:29:34;-0.30;99.90
24384;DHT22;12504;52.870;8.798;2022-11-20T01:31:59;-0.30;99.90
24384;DHT22;12504;52.870;8.798;2022-11-20T01:34:25;-0.30;99.90
24384;DHT22;12504;52.870;8.798;2022-11-20T01:36:51;-0.20;99.90
24384;DHT22;12504;52.870;8.798;2022-11-20T01:39:18;-0.20;99.90
24384;DHT22;12504;52.870;8.798;2022-11-20T01:41:44;-0.20;99.90
24384;DHT22;12504;52.870;8.798;2022-11-20T01:47:06;0.00;99.90
24384;DHT22;12504;52.870;8.798;2022-11-20T01:52:24;0.00;99.90
24384;DHT22;12504;52.870;8.798;2022-11-20T01:54:55;0.00;99.90
24384;DHT22;12504;52.870;8.798;2022-11-20T01:57:21;0.00;99.90
24384;DHT22;12504;52.870;8.798;2022-11-20T01:59:51;0.00;99.90
24384;DHT22;12504;52.870;8.798;2022-11-20T02:02:20;-0.10;99.90
24384;DHT22;12504;52.870;8.798;2022-11-20T02:04:46;-0.10;99.90
24384;DHT22;12504;52.870;8.798;2022-11-20T02:07:12;-0.10;99.90
24384;DHT22;12504;52.870;8.798;2022-11-20T02:09:39;0.00;99.90
24384;DHT22;12504;52.870;8.798;2022-11-20T02:12:04;0.00;99.90
24384;DHT22;12504;52.870;8.798;2022-11-20T02:14:30;-0.10;99.90
24384;DHT22;12504;52.870;8.798;2022-11-20T02:16:56;-0.20;99.90
24384;DHT22;12504;52.870;8.798;2022-11-20T02:19:23;-0.20;99.90
24384;DHT22;12504;52.870;8.798;2022-11-20T02:24:19;-0.40;99.90
24384;DHT22;12504;52.870;8.798;2022-11-20T02:26:52;-0.30;99.90
24384;DHT22;12504;52.870;8.798;2022-11-20T02:29:31;-0.30;99.90
24384;DHT22;12504;52.870;8.798;2022-11-20T02:31:57;-0.20;99.90
24384;DHT22;12504;52.870;8.798;2022-11-20T02:34:24;-0.20;99.90
24384;DHT22;12504;52.870;8.798;2022-11-20T02:36:50;-0.10;99.90
24384;DHT22;12504;52.870;8.798;2022-11-20T02:39:17;-0.10;99.90
24384;DHT22;12504;52.870;8.798;2022-11-20T02:41:44;-0.10;99.90
24384;DHT22;12504;52.870;8.798;2022-11-20T02:44:10;-0.10;99.90
24384;DHT22;12504;52.870;8.798;2022-11-20T02:46:36;-0.10;99.90
24384;DHT22;12504;52.870;8.798;2022-11-20T02:49:02;-0.10;99.90
24384;DHT22;12504;52.870;8.798;2022-11-20T02:51:28;0.00;99.90
24384;DHT22;12504;52.870;8.798;2022-11-20T02:53:54;0.00;99.90
24384;DHT22;12504;52.870;8.798;2022-11-20T02:56:20;0.00;99.90
24384;DHT22;12504;52.870;8.798;2022-11-20T02:58:45;0.00;99.90
24384;DHT22;12504;52.870;8.798;2022-11-20T03:01:11;0.00;99.90
24384;DHT22;12504;52.870;8.798;2022-11-20T03:03:37;0.00;99.90
24384;DHT22;12504;52.870;8.798;2022-11-20T03:06:03;0.00;99.90
24384;DHT22;12504;52.870;8.798;2022-11-20T03:08:28;0.10;99.90
24384;DHT22;12504;52.870;8.798;2022-11-20T03:10:54;0.10;99.90
24384;DHT22;12504;52.870;8.798;2022-11-20T03:13:20;0.10;99.90
24384;DHT22;12504;52.870;8.798;2022-11-20T03:15:46;0.10;99.90
24384;DHT22;12504;52.870;8.798;2022-11-20T03:18:11;0.20;99.90
24384;DHT22;12504;52.870;8.798;2022-11-20T03:20:38;0.20;99.90
24384;DHT22;12504;52.870;8.798;2022-11-20T03:23:04;0.10;99.90
24384;DHT22;12504;52.870;8.798;2022-11-20T03:25:30;0.10;99.90
24384;DHT22;12504;52.870;8.798;2022-11-20T03:27:56;0.10;99.90
24384;DHT22;12504;52.870;8.798;2022-11-20T03:30:22;0.20;99.90
24384;DHT22;12504;52.870;8.798;2022-11-20T03:32:47;0.20;99.90
24384;DHT22;12504;52.870;8.798;2022-11-20T03:35:13;0.20;99.90
24384;DHT22;12504;52.870;8.798;2022-11-20T03:37:39;0.20;99.90
24384;DHT22;12504;52.870;8.798;2022-11-20T03:40:04;0.20;99.90
24384;DHT22;12504;52.870;8.798;2022-11-20T03:42:30;0.30;99.90
24384;DHT22;12504;52.870;8.798;2022-11-20T03:45:14;0.30;99.90
24384;DHT22;12504;52.870;8.798;2022-11-20T03:47:40;0.30;99.90
24384;DHT22;12504;52.870;8.798;2022-11-20T03:50:06;0.30;99.90
24384;DHT22;12504;52.870;8.798;2022-11-20T03:52:32;0.30;99.90
24384;DHT22;12504;52.870;8.798;2022-11-20T03:54:58;0.30;99.90
24384;DHT22;12504;52.870;8.798;2022-11-20T03:57:23;0.30;99.90
24384;DHT22;12504;52.870;8.798;2022-11-20T03:59:49;0.30;99.90
24384;DHT22;12504;52.870;8.798;2022-11-20T04:02:15;0.20;99.90
24384;DHT22;12504;52.870;8.798;2022-11-20T04:04:40;0.20;99.90
24384;DHT22;12504;52.870;8.798;2022-11-20T04:07:06;0.20;99.90
24384;DHT22;12504;52.870;8.798;2022-11-20T04:09:32;0.20;99.90
24384;DHT22;12504;52.870;8.798;2022-11-20T04:11:58;0.20;99.90
24384;DHT22;12504;52.870;8.798;2022-11-20T04:14:23;0.10;99.90
24384;DHT22;12504;52.870;8.798;2022-11-20T04:16:49;0.20;99.90
24384;DHT22;12504;52.870;8.798;2022-11-20T04:19:15;0.20;99.90
24384;DHT22;12504;52.870;8.798;2022-11-20T04:21:42;0.20;99.90
24384;DHT22;12504;52.870;8.798;2022-11-20T04:24:08;0.00;99.90
24384;DHT22;12504;52.870;8.798;2022-11-20T04:26:36;-0.10;99.90
24384;DHT22;12504;52.870;8.798;2022-11-20T04:29:02;-0.10;99.90
24384;DHT22;12504;52.870;8.798;2022-11-20T04:31:28;-0.20;99.90
24384;DHT22;12504;52.870;8.798;2022-11-20T04:33:55;-0.20;99.90
24384;DHT22;12504;52.870;8.798;2022-11-20T04:36:24;-0.10;99.90
24384;DHT22;12504;52.870;8.798;2022-11-20T04:38:51;0.00;99.90
24384;DHT22;12504;52.870;8.798;2022-11-20T04:41:19;0.00;99.90
24384;DHT22;12504;52.870;8.798;2022-11-20T04:43:48;0.00;99.90
24384;DHT22;12504;52.870;8.798;2022-11-20T04:46:14;-0.10;99.90
24384;DHT22;12504;52.870;8.798;2022-11-20T04:48:40;-0.10;99.90
24384;DHT22;12504;52.870;8.798;2022-11-20T04:51:05;0.00;99.90
24384;DHT22;12504;52.870;8.798;2022-11-20T04:53:31;0.00;99.90
24384;DHT22;12504;52.870;8.798;2022-11-20T04:56:00;-0.10;99.90
24384;DHT22;12504;52.870;8.798;2022-11-20T04:58:26;-0.10;99.90
24384;DHT22;12504;52.870;8.798;2022-11-20T05:00:52;0.00;99.90
24384;DHT22;12504;52.870;8.798;2022-11-20T05:03:18;0.00;99.90
24384;DHT22;12504;52.870;8.798;2022-11-20T05:05:44;0.10;99.90
24384;DHT22;12504;52.870;8.798;2022-11-20T05:08:09;0.00;99.90
24384;DHT22;12504;52.870;8.798;2022-11-20T05:10:35;-0.10;99.90
24384;DHT22;12504;52.870;8.798;2022-11-20T05:13:01;-0.10;99.90
24384;DHT22;12504;52.870;8.798;2022-11-20T05:15:26;-0.10;99.90
24384;DHT22;12504;52.870;8.798;2022-11-20T05:17:52;-0.10;99.90
24384;DHT22;12504;52.870;8.798;2022-11-20T05:20:18;-0.10;99.90
24384;DHT22;12504;52.870;8.798;2022-11-20T05:22:44;-0.10;99.90
24384;DHT22;12504;52.870;8.798;2022-11-20T05:25:10;0.00;99.90
24384;DHT22;12504;52.870;8.798;2022-11-20T05:27:36;0.00;99.90
24384;DHT22;12504;52.870;8.798;2022-11-20T05:30:03;0.00;99.90
24384;DHT22;12504;52.870;8.798;2022-11-20T05:32:29;0.20;99.90
24384;DHT22;12504;52.870;8.798;2022-11-20T05:34:54;0.20;99.90
24384;DHT22;12504;52.870;8.798;2022-11-20T05:37:20;0.30;99.90
24384;DHT22;12504;52.870;8.798;2022-11-20T05:39:46;0.20;99.90
24384;DHT22;12504;52.870;8.798;2022-11-20T05:42:12;0.10;99.90
24384;DHT22;12504;52.870;8.798;2022-11-20T05:44:56;0.20;99.90
24384;DHT22;12504;52.870;8.798;2022-11-20T05:47:22;0.20;99.90
24384;DHT22;12504;52.870;8.798;2022-11-20T05:49:47;0.20;99.90
24384;DHT22;12504;52.870;8.798;2022-11-20T05:52:13;0.30;99.90
24384;DHT22;12504;52.870;8.798;2022-11-20T05:54:39;0.30;99.90
24384;DHT22;12504;52.870;8.798;2022-11-20T05:57:05;0.30;99.90
24384;DHT22;12504;52.870;8.798;2022-11-20T05:59:30;0.30;99.90
24384;DHT22;12504;52.870;8.798;2022-11-20T06:01:56;0.20;99.90
24384;DHT22;12504;52.870;8.798;2022-11-20T06:04:22;0.20;99.90
24384;DHT22;12504;52.870;8.798;2022-11-20T06:06:48;0.30;99.90
24384;DHT22;12504;52.870;8.798;2022-11-20T06:09:16;0.30;99.90
24384;DHT22;12504;52.870;8.798;2022-11-20T06:11:42;0.30;99.90
24384;DHT22;12504;52.870;8.798;2022-11-20T06:14:07;0.30;99.90
24384;DHT22;12504;52.870;8.798;2022-11-20T06:16:33;0.30;99.90
24384;DHT22;12504;52.870;8.798;2022-11-20T06:18:59;0.30;99.90
24384;DHT22;12504;52.870;8.798;2022-11-20T06:21:24;0.20;99.90
24384;DHT22;12504;52.870;8.798;2022-11-20T06:23:52;0.20;99.90
24384;DHT22;12504;52.870;8.798;2022-11-20T06:26:21;0.20;99.90
24384;DHT22;12504;52.870;8.798;2022-11-20T06:28:48;0.20;99.90
24384;DHT22;12504;52.870;8.798;2022-11-20T06:31:14;0.30;99.90
24384;DHT22;12504;52.870;8.798;2022-11-20T06:33:41;0.40;99.90
24384;DHT22;12504;52.870;8.798;2022-11-20T06:36:06;0.40;99.90
24384;DHT22;12504;52.870;8.798;2022-11-20T06:38:32;0.40;99.90
24384;DHT22;12504;52.870;8.798;2022-11-20T06:40:58;0.40;99.90
24384;DHT22;12504;52.870;8.798;2022-11-20T06:43:24;0.40;99.90
24384;DHT22;12504;52.870;8.798;2022-11-20T06:45:54;0.30;99.90
24384;DHT22;12504;52.870;8.798;2022-11-20T06:48:19;0.30;99.90
24384;DHT22;12504;52.870;8.798;2022-11-20T06:50:46;0.40;99.90
24384;DHT22;12504;52.870;8.798;2022-11-20T06:53:11;0.40;99.90
24384;DHT22;12504;52.870;8.798;2022-11-20T06:55:41;0.40;99.90
24384;DHT22;12504;52.870;8.798;2022-11-20T06:58:07;0.40;99.90
24384;DHT22;12504;52.870;8.798;2022-11-20T07:00:32;0.40;99.90
24384;DHT22;12504;52.870;8.798;2022-11-20T07:02:58;0.40;99.90
24384;DHT22;12504;52.870;8.798;2022-11-20T07:05:27;0.40;99.90
24384;DHT22;12504;52.870;8.798;2022-11-20T07:07:55;0.40;99.90
24384;DHT22;12504;52.870;8.798;2022-11-20T07:10:21;0.50;99.90
24384;DHT22;12504;52.870;8.798;2022-11-20T07:12:50;0.40;99.90
24384;DHT22;12504;52.870;8.798;2022-11-20T07:15:17;0.40;99.90
24384;DHT22;12504;52.870;8.798;2022-11-20T07:17:42;0.40;99.90
24384;DHT22;12504;52.870;8.798;2022-11-20T07:20:08;0.40;99.90
24384;DHT22;12504;52.870;8.798;2022-11-20T07:22:36;0.40;99.90
24384;DHT22;12504;52.870;8.798;2022-11-20T07:25:02;0.40;99.90
24384;DHT22;12504;52.870;8.798;2022-11-20T07:27:28;0.40;99.90
24384;DHT22;12504;52.870;8.798;2022-11-20T07:29:54;0.50;99.90
24384;DHT22;12504;52.870;8.798;2022-11-20T07:32:20;0.60;99.90
24384;DHT22;12504;52.870;8.798;2022-11-20T07:34:45;0.60;99.90
24384;DHT22;12504;52.870;8.798;2022-11-20T07:37:11;0.60;99.90
24384;DHT22;12504;52.870;8.798;2022-11-20T07:39:37;0.60;99.90
24384;DHT22;12504;52.870;8.798;2022-11-20T07:42:03;0.60;99.90
24384;DHT22;12504;52.870;8.798;2022-11-20T07:44:30;0.60;99.90
24384;DHT22;12504;52.870;8.798;2022-11-20T07:46:56;0.60;99.90
24384;DHT22;12504;52.870;8.798;2022-11-20T07:49:22;0.60;99.90
24384;DHT22;12504;52.870;8.798;2022-11-20T07:51:49;0.60;99.90
24384;DHT22;12504;52.870;8.798;2022-11-20T07:54:15;0.60;99.90
24384;DHT22;12504;52.870;8.798;2022-11-20T07:56:41;0.60;99.90
24384;DHT22;12504;52.870;8.798;2022-11-20T07:59:07;0.60;99.90
24384;DHT22;12504;52.870;8.798;2022-11-20T08:01:33;0.60;99.90
24384;DHT22;12504;52.870;8.798;2022-11-20T08:03:58;0.60;99.90
24384;DHT22;12504;52.870;8.798;2022-11-20T08:06:24;0.60;99.90
24384;DHT22;12504;52.870;8.798;2022-11-20T08:08:50;0.60;99.90
24384;DHT22;12504;52.870;8.798;2022-11-20T08:11:16;0.60;99.90
24384;DHT22;12504;52.870;8.798;2022-11-20T08:14:00;0.70;99.90
24384;DHT22;12504;52.870;8.798;2022-11-20T08:16:42;0.70;99.90
24384;DHT22;12504;52.870;8.798;2022-11-20T08:19:08;0.80;99.90
24384;DHT22;12504;52.870;8.798;2022-11-20T08:21:34;0.80;99.90
24384;DHT22;12504;52.870;8.798;2022-11-20T08:24:07;0.80;99.90
24384;DHT22;12504;52.870;8.798;2022-11-20T08:26:34;0.80;99.90
24384;DHT22;12504;52.870;8.798;2022-11-20T08:28:59;0.80;99.90
24384;DHT22;12504;52.870;8.798;2022-11-20T08:31:26;0.80;99.90
24384;DHT22;12504;52.870;8.798;2022-11-20T08:33:52;0.80;99.90
24384;DHT22;12504;52.870;8.798;2022-11-20T08:36:21;0.80;99.90
24384;DHT22;12504;52.870;8.798;2022-11-20T08:38:47;0.80;99.90
24384;DHT22;12504;52.870;8.798;2022-11-20T08:41:13;0.80;99.90
24384;DHT22;12504;52.870;8.798;2022-11-20T08:43:53;0.80;99.90
24384;DHT22;12504;52.870;8.798;2022-11-20T08:46:19;0.80;99.90
24384;DHT22;12504;52.870;8.798;2022-11-20T08:48:45;0.80;99.90
24384;DHT22;12504;52.870;8.798;2022-11-20T08:51:11;0.80;99.90
24384;DHT22;12504;52.870;8.798;2022-11-20T08:53:37;0.80;99.90
24384;DHT22;12504;52.870;8.798;2022-11-20T08:56:02;0.80;99.90
24384;DHT22;12504;52.870;8.798;2022-11-20T08:58:28;0.80;99.90
24384;DHT22;12504;52.870;8.798;2022-11-20T09:00:54;0.80;99.90
24384;DHT22;12504;52.870;8.798;2022-11-20T09:03:19;0.80;99.90
24384;DHT22;12504;52.870;8.798;2022-11-20T09:05:46;0.80;99.90
24384;DHT22;12504;52.870;8.798;2022-11-20T09:08:12;0.90;99.90
24384;DHT22;12504;52.870;8.798;2022-11-20T09:10:38;0.90;99.90
24384;DHT22;12504;52.870;8.798;2022-11-20T09:13:06;1.00;99.90
24384;DHT22;12504;52.870;8.798;2022-11-20T09:15:32;1.00;99.90
24384;DHT22;12504;52.870;8.798;2022-11-20T09:18:02;1.10;99.90
24384;DHT22;12504;52.870;8.798;2022-11-20T09:20:29;1.10;99.90
24384;DHT22;12504;52.870;8.798;2022-11-20T09:22:55;1.20;99.90
24384;DHT22;12504;52.870;8.798;2022-11-20T09:25:21;1.20;99.90
24384;DHT22;12504;52.870;8.798;2022-11-20T09:27:46;1.30;99.90
24384;DHT22;12504;52.870;8.798;2022-11-20T09:30:13;1.30;99.90
24384;DHT22;12504;52.870;8.798;2022-11-20T09:32:39;1.20;99.90
24384;DHT22;12504;52.870;8.798;2022-11-20T09:35:04;1.20;99.90
24384;DHT22;12504;52.870;8.798;2022-11-20T09:37:30;1.20;99.90
24384;DHT22;12504;52.870;8.798;2022-11-20T09:39:56;1.20;99.90
24384;DHT22;12504;52.870;8.798;2022-11-20T09:45:12;1.30;99.90
24384;DHT22;12504;52.870;8.798;2022-11-20T09:47:45;1.30;99.90
24384;DHT22;12504;52.870;8.798;2022-11-20T09:50:31;1.30;99.90
24384;DHT22;12504;52.870;8.798;2022-11-20T09:53:13;1.30;99.90
24384;DHT22;12504;52.870;8.798;2022-11-20T09:55:40;1.30;99.90
24384;DHT22;12504;52.870;8.798;2022-11-20T09:58:07;1.30;99.90
24384;DHT22;12504;52.870;8.798;2022-11-20T10:00:35;1.30;99.90
24384;DHT22;12504;52.870;8.798;2022-11-20T10:03:18;1.30;99.90
24384;DHT22;12504;52.870;8.798;2022-11-20T10:05:47;1.40;99.90
24384;DHT22;12504;52.870;8.798;2022-11-20T10:08:21;1.30;99.90
24384;DHT22;12504;52.870;8.798;2022-11-20T10:10:56;1.40;99.90
24384;DHT22;12504;52.870;8.798;2022-11-20T10:18:46;1.40;99.90
24384;DHT22;12504;52.870;8.798;2022-11-20T10:21:18;1.40;99.90
24384;DHT22;12504;52.870;8.798;2022-11-20T10:24:00;1.40;99.90
24384;DHT22;12504;52.870;8.798;2022-11-20T10:29:33;1.40;99.90
24384;DHT22;12504;52.870;8.798;2022-11-20T10:32:04;1.50;99.90
24384;DHT22;12504;52.870;8.798;2022-11-20T10:34:32;1.50;99.90
24384;DHT22;12504;52.870;8.798;2022-11-20T10:37:04;1.50;99.90
24384;DHT22;12504;52.870;8.798;2022-11-20T10:39:35;1.40;99.90
24384;DHT22;12504;52.870;8.798;2022-11-20T10:42:02;1.30;99.90
24384;DHT22;12504;52.870;8.798;2022-11-20T10:44:28;1.30;99.90
24384;DHT22;12504;52.870;8.798;2022-11-20T10:47:14;1.30;99.90
24384;DHT22;12504;52.870;8.798;2022-11-20T10:49:40;1.40;99.90
24384;DHT22;12504;52.870;8.798;2022-11-20T10:54:38;1.40;99.90
24384;DHT22;12504;52.870;8.798;2022-11-20T11:00:03;1.50;99.90
24384;DHT22;12504;52.870;8.798;2022-11-20T11:02:39;1.50;99.90
24384;DHT22;12504;52.870;8.798;2022-11-20T11:05:14;1.50;99.90
24384;DHT22;12504;52.870;8.798;2022-11-20T11:07:42;1.50;99.90
24384;DHT22;12504;52.870;8.798;2022-11-20T11:10:14;1.60;99.90
24384;DHT22;12504;52.870;8.798;2022-11-20T11:12:43;1.60;99.90
24384;DHT22;12504;52.870;8.798;2022-11-20T11:15:24;1.60;99.90
24384;DHT22;12504;52.870;8.798;2022-11-20T11:17:51;1.60;99.90
24384;DHT22;12504;52.870;8.798;2022-11-20T11:20:17;1.60;99.90
24384;DHT22;12504;52.870;8.798;2022-11-20T11:22:48;1.60;99.90
24384;DHT22;12504;52.870;8.798;2022-11-20T11:25:21;1.70;99.90
24384;DHT22;12504;52.870;8.798;2022-11-20T11:27:48;1.70;99.90
24384;DHT22;12504;52.870;8.798;2022-11-20T11:30:14;1.80;99.90
24384;DHT22;12504;52.870;8.798;2022-11-20T11:32:40;1.80;99.90
24384;DHT22;12504;52.870;8.798;2022-11-20T11:35:06;1.80;99.90
24384;DHT22;12504;52.870;8.798;2022-11-20T11:37:37;1.80;99.90
24384;DHT22;12504;52.870;8.798;2022-11-20T11:40:04;1.90;99.90
24384;DHT22;12504;52.870;8.798;2022-11-20T11:42:30;1.90;99.90
24384;DHT22;12504;52.870;8.798;2022-11-20T11:44:56;2.00;99.90
24384;DHT22;12504;52.870;8.798;2022-11-20T11:47:35;2.10;99.90
24384;DHT22;12504;52.870;8.798;2022-11-20T11:52:38;2.20;99.90
24384;DHT22;12504;52.870;8.798;2022-11-20T11:55:07;2.10;99.90
24384;DHT22;12504;52.870;8.798;2022-11-20T12:00:20;2.00;99.90
24384;DHT22;12504;52.870;8.798;2022-11-20T12:07:49;1.80;99.90
24384;DHT22;12504;52.870;8.798;2022-11-20T12:10:40;1.90;99.90
24384;DHT22;12504;52.870;8.798;2022-11-20T12:13:15;1.90;99.90
24384;DHT22;12504;52.870;8.798;2022-11-20T12:15:52;1.80;99.90
24384;DHT22;12504;52.870;8.798;2022-11-20T12:18:22;1.80;99.90
24384;DHT22;12504;52.870;8.798;2022-11-20T12:21:12;1.70;99.90
24384;DHT22;12504;52.870;8.798;2022-11-20T12:29:17;1.70;99.90
24384;DHT22;12504;52.870;8.798;2022-11-20T12:31:57;1.70;99.90
24384;DHT22;12504;52.870;8.798;2022-11-20T12:39:46;1.60;99.90
24384;DHT22;12504;52.870;8.798;2022-11-20T12:42:18;1.60;99.90
24384;DHT22;12504;52.870;8.798;2022-11-20T12:45:23;1.70;99.90
24384;DHT22;12504;52.870;8.798;2022-11-20T13:06:46;2.10;99.90
24384;DHT22;12504;52.870;8.798;2022-11-20T13:09:13;2.10;99.90
24384;DHT22;12504;52.870;8.798;2022-11-20T13:14:29;1.80;99.90
24384;DHT22;12504;52.870;8.798;2022-11-20T13:19:31;1.80;99.90
24384;DHT22;12504;52.870;8.798;2022-11-20T13:21:57;1.80;99.90
24384;DHT22;12504;52.870;8.798;2022-11-20T13:24:24;1.80;99.90
24384;DHT22;12504;52.870;8.798;2022-11-20T13:29:30;1.90;99.90
24384;DHT22;12504;52.870;8.798;2022-11-20T13:34:28;1.80;99.90
24384;DHT22;12504;52.870;8.798;2022-11-20T13:36:54;1.80;99.90
24384;DHT22;12504;52.870;8.798;2022-11-20T13:39:31;1.80;99.90
24384;DHT22;12504;52.870;8.798;2022-11-20T13:41:58;1.70;99.90
24384;DHT22;12504;52.870;8.798;2022-11-20T13:44:38;1.70;99.90
24384;DHT22;12504;52.870;8.798;2022-11-20T13:47:04;1.70;99.90
24384;DHT22;12504;52.870;8.798;2022-11-20T13:49:44;1.70;99.90
24384;DHT22;12504;52.870;8.798;2022-11-20T13:57:28;1.40;99.90
24384;DHT22;12504;52.870;8.798;2022-11-20T14:00:02;1.30;99.90
24384;DHT22;12504;52.870;8.798;2022-11-20T14:02:36;1.30;99.90
24384;DHT22;12504;52.870;8.798;2022-11-20T14:05:01;1.40;99.90
24384;DHT22;12504;52.870;8.798;2022-11-20T14:07:34;1.50;99.90
24384;DHT22;12504;52.870;8.798;2022-11-20T14:10:01;1.50;99.90
24384;DHT22;12504;52.870;8.798;2022-11-20T14:12:31;1.60;99.90
24384;DHT22;12504;52.870;8.798;2022-11-20T14:14:57;1.60;99.90
24384;DHT22;12504;52.870;8.798;2022-11-20T14:17:28;1.80;99.90
24384;DHT22;12504;52.870;8.798;2022-11-20T14:19:54;1.90;99.90
24384;DHT22;12504;52.870;8.798;2022-11-20T14:22:24;1.80;99.90
24384;DHT22;12504;52.870;8.798;2022-11-20T14:27:32;1.80;99.90
24384;DHT22;12504;52.870;8.798;2022-11-20T14:30:00;1.60;99.90
24384;DHT22;12504;52.870;8.798;2022-11-20T14:32:26;1.50;99.90
24384;DHT22;12504;52.870;8.798;2022-11-20T14:34:53;1.30;99.90
24384;DHT22;12504;52.870;8.798;2022-11-20T14:37:20;1.20;99.90
24384;DHT22;12504;52.870;8.798;2022-11-20T14:39:54;1.10;99.90
24384;DHT22;12504;52.870;8.798;2022-11-20T14:42:23;1.00;99.90
24384;DHT22;12504;52.870;8.798;2022-11-20T14:44:50;0.90;99.90
24384;DHT22;12504;52.870;8.798;2022-11-20T14:47:20;0.90;99.90
24384;DHT22;12504;52.870;8.798;2022-11-20T14:49:47;0.80;99.90
24384;DHT22;12504;52.870;8.798;2022-11-20T14:52:23;0.80;99.90
24384;DHT22;12504;52.870;8.798;2022-11-20T14:54:50;0.90;99.90
24384;DHT22;12504;52.870;8.798;2022-11-20T14:57:26;0.90;99.90
24384;DHT22;12504;52.870;8.798;2022-11-20T15:02:47;0.90;99.90
24384;DHT22;12504;52.870;8.798;2022-11-20T15:05:13;0.90;99.90
24384;DHT22;12504;52.870;8.798;2022-11-20T15:07:45;0.80;99.90
24384;DHT22;12504;52.870;8.798;2022-11-20T15:10:24;0.70;99.90
24384;DHT22;12504;52.870;8.798;2022-11-20T15:12:51;0.60;99.90
24384;DHT22;12504;52.870;8.798;2022-11-20T15:15:19;0.50;99.90
24384;DHT22;12504;52.870;8.798;2022-11-20T15:17:46;0.50;99.90
24384;DHT22;12504;52.870;8.798;2022-11-20T15:20:13;0.40;99.90
24384;DHT22;12504;52.870;8.798;2022-11-20T15:22:39;0.40;99.90
24384;DHT22;12504;52.870;8.798;2022-11-20T15:25:11;0.30;99.90
24384;DHT22;12504;52.870;8.798;2022-11-20T15:27:36;0.20;99.90
24384;DHT22;12504;52.870;8.798;2022-11-20T15:30:04;0.10;99.90
24384;DHT22;12504;52.870;8.798;2022-11-20T15:32:34;0.00;99.90
24384;DHT22;12504;52.870;8.798;2022-11-20T15:35:00;-0.20;99.90
24384;DHT22;12504;52.870;8.798;2022-11-20T15:37:25;-0.20;99.90
24384;DHT22;12504;52.870;8.798;2022-11-20T15:39:51;-0.30;99.90
24384;DHT22;12504;52.870;8.798;2022-11-20T15:42:17;-0.30;99.90
24384;DHT22;12504;52.870;8.798;2022-11-20T15:44:42;-0.40;99.90
24384;DHT22;12504;52.870;8.798;2022-11-20T15:47:08;-0.30;99.90
24384;DHT22;12504;52.870;8.798;2022-11-20T15:49:35;-0.30;99.90
24384;DHT22;12504;52.870;8.798;2022-11-20T15:52:00;-0.30;99.90
24384;DHT22;12504;52.870;8.798;2022-11-20T15:54:26;-0.40;99.90
24384;DHT22;12504;52.870;8.798;2022-11-20T15:56:51;-0.60;99.90
24384;DHT22;12504;52.870;8.798;2022-11-20T15:59:17;-0.70;99.90
24384;DHT22;12504;52.870;8.798;2022-11-20T16:01:43;-0.70;99.90
24384;DHT22;12504;52.870;8.798;2022-11-20T16:04:15;-0.80;99.90
24384;DHT22;12504;52.870;8.798;2022-11-20T16:06:41;-0.90;99.90
24384;DHT22;12504;52.870;8.798;2022-11-20T16:09:07;-1.00;99.90
24384;DHT22;12504;52.870;8.798;2022-11-20T16:11:33;-1.00;99.90
24384;DHT22;12504;52.870;8.798;2022-11-20T16:14:02;-1.10;99.90
24384;DHT22;12504;52.870;8.798;2022-11-20T16:16:47;-1.10;99.90
24384;DHT22;12504;52.870;8.798;2022-11-20T16:19:13;-1.10;99.90
24384;DHT22;12504;52.870;8.798;2022-11-20T16:21:39;-1.10;99.90
24384;DHT22;12504;52.870;8.798;2022-11-20T16:24:07;-1.20;99.90
24384;DHT22;12504;52.870;8.798;2022-11-20T16:26:35;-1.20;99.90
24384;DHT22;12504;52.870;8.798;2022-11-20T16:29:01;-1.10;99.90
24384;DHT22;12504;52.870;8.798;2022-11-20T16:31:28;-1.10;99.90
24384;DHT22;12504;52.870;8.798;2022-11-20T16:33:57;-1.20;99.90
24384;DHT22;12504;52.870;8.798;2022-11-20T16:36:24;-1.10;99.90
24384;DHT22;12504;52.870;8.798;2022-11-20T16:38:57;-1.10;99.90
24384;DHT22;12504;52.870;8.798;2022-11-20T16:41:23;-1.00;99.90
24384;DHT22;12504;52.870;8.798;2022-11-20T16:43:51;-1.00;99.90
24384;DHT22;12504;52.870;8.798;2022-11-20T16:46:18;-1.00;99.90
24384;DHT22;12504;52.870;8.798;2022-11-20T16:48:44;-0.90;99.90
24384;DHT22;12504;52.870;8.798;2022-11-20T16:51:10;-1.00;99.90
24384;DHT22;12504;52.870;8.798;2022-11-20T16:53:36;-1.00;99.90
24384;DHT22;12504;52.870;8.798;2022-11-20T16:56:09;-1.10;99.90
24384;DHT22;12504;52.870;8.798;2022-11-20T16:58:35;-1.10;99.90
24384;DHT22;12504;52.870;8.798;2022-11-20T17:01:05;-1.10;99.90
24384;DHT22;12504;52.870;8.798;2022-11-20T17:03:31;-1.20;99.90
24384;DHT22;12504;52.870;8.798;2022-11-20T17:05:56;-1.20;99.90
24384;DHT22;12504;52.870;8.798;2022-11-20T17:08:22;-1.20;99.90
24384;DHT22;12504;52.870;8.798;2022-11-20T17:10:48;-1.30;99.90
24384;DHT22;12504;52.870;8.798;2022-11-20T17:13:13;-1.20;99.90